Time;durP1;ratioP1;P1;durP2;ratioP2;P2;SDS_P1;SDS_P2;PMS_P1;PMS_P2;Temp;Humidity;BMP_temperature;BMP_pressure;BME280_temperature;BME280_humidity;BME280_pressure;Samples;Min_cycle;Max_cycle;Signal;HPM_P1;HPM_P2
2023/05/04 00:01:47;;;;;;;;;37.00;34.67;;;;;20.48;47.57;100329.66;5059000;28;45744;-72
2023/05/04 00:04:13;;;;;;;;;35.67;33.67;;;;;20.47;47.81;100319.72;5058827;28;46173;-72
2023/05/04 00:06:39;;;;;;;;;35.00;33.00;;;;;20.52;47.93;100330.94;5059948;28;45449;-72
2023/05/04 00:09:05;;;;;;;;;34.33;33.00;;;;;20.43;48.11;100315.69;5061759;28;45479;-72
2023/05/04 00:11:31;;;;;;;;;34.33;33.00;;;;;20.48;47.71;100316.78;5060263;28;45391;-72
2023/05/04 00:13:57;;;;;;;;;32.33;31.67;;;;;20.48;47.79;100314.03;5059654;28;45469;-72
2023/05/04 00:16:22;;;;;;;;;34.33;32.33;;;;;20.48;47.40;100319.53;5059612;28;45575;-72
2023/05/04 00:18:48;;;;;;;;;36.00;32.33;;;;;20.47;47.76;100311.47;5059832;28;45452;-72
2023/05/04 00:21:13;;;;;;;;;34.00;33.00;;;;;20.51;47.98;100312.75;5058790;28;45438;-72
2023/05/04 00:23:39;;;;;;;;;34.33;32.33;;;;;20.43;47.96;100304.72;5057574;28;45423;-73
2023/05/04 00:26:04;;;;;;;;;35.67;33.67;;;;;20.48;47.51;100305.78;5059614;28;45405;-72
2023/05/04 00:28:31;;;;;;;;;32.67;32.00;;;;;20.34;47.55;100282.91;5059672;28;45373;-72
2023/05/04 00:30:56;;;;;;;;;34.00;31.67;;;;;20.43;47.97;100307.44;5060325;28;45387;-72
2023/05/04 00:33:23;;;;;;;;;31.33;30.67;;;;;20.42;48.04;100300.25;5059353;28;46332;-72
2023/05/04 00:35:49;;;;;;;;;31.67;31.67;;;;;20.32;47.55;100282.28;5059816;28;45417;-72
2023/05/04 00:38:15;;;;;;;;;34.67;32.33;;;;;20.31;47.87;100277.00;5061901;28;45512;-72
2023/05/04 00:40:41;;;;;;;;;31.33;29.33;;;;;20.38;47.81;100285.25;5060166;28;45808;-72
2023/05/04 00:43:07;;;;;;;;;30.33;28.33;;;;;20.42;48.10;100287.34;5059547;28;45485;-72
2023/05/04 00:45:33;;;;;;;;;31.67;31.33;;;;;20.34;47.96;100274.69;5056963;28;45441;-72
2023/05/04 00:47:59;;;;;;;;;32.33;28.33;;;;;20.40;47.89;100283.13;5059802;28;45699;-72
2023/05/04 00:50:26;;;;;;;;;31.33;31.00;;;;;20.38;47.52;100271.53;5058920;28;45406;-73
2023/05/04 00:52:55;;;;;;;;;33.33;29.33;;;;;20.44;47.54;100284.41;5058665;28;46421;-72
2023/05/04 00:55:21;;;;;;;;;27.33;27.33;;;;;20.36;47.59;100263.47;5059028;28;45763;-72
2023/05/04 00:57:48;;;;;;;;;30.00;29.33;;;;;20.39;47.82;100259.44;5059581;28;45728;-72
2023/05/04 01:00:14;;;;;;;;;29.00;28.67;;;;;20.31;47.62;100247.59;5059633;28;45474;-72
2023/05/04 01:02:40;;;;;;;;;29.00;28.33;;;;;20.39;47.80;100264.94;5057984;28;47561;-72
2023/05/04 01:05:11;;;;;;;;;26.67;25.33;;;;;20.32;48.07;100254.78;5062122;28;45760;-72
2023/05/04 01:07:36;;;;;;;;;33.67;31.33;;;;;20.42;47.85;100270.03;5048650;28;45447;-72
2023/05/04 01:10:08;;;;;;;;;29.33;27.33;;;;;20.41;48.00;100260.94;5058782;28;45387;-72
2023/05/04 01:12:46;;;;;;;;;30.67;30.33;;;;;20.42;47.67;100259.03;5058967;28;45448;-72
2023/05/04 01:15:12;;;;;;;;;28.33;28.33;;;;;20.40;47.97;100247.41;5058571;28;45525;-72
2023/05/04 01:17:39;;;;;;;;;26.67;26.67;;;;;20.30;47.60;100240.44;5058788;28;45366;-72
2023/05/04 01:20:14;;;;;;;;;27.00;23.33;;;;;20.36;47.66;100248.88;5059607;28;45540;-72
2023/05/04 01:22:40;;;;;;;;;29.00;25.67;;;;;20.30;47.98;100234.94;5058124;28;45821;-72
2023/05/04 01:25:06;;;;;;;;;30.67;29.00;;;;;20.37;48.00;100250.59;5058830;28;45435;-72
2023/05/04 01:27:35;;;;;;;;;26.33;26.33;;;;;20.37;47.88;100250.59;5058702;28;45347;-73
2023/05/04 01:30:32;;;;;;;;;27.33;24.67;;;;;20.38;47.74;100249.53;5059719;28;45501;-72
2023/05/04 01:32:59;;;;;;;;;26.00;26.00;;;;;20.31;47.87;100244.84;5037221;28;46350;-72
2023/05/04 01:35:25;;;;;;;;;25.00;23.33;;;;;20.36;47.82;100244.22;5058281;28;45816;-72
2023/05/04 01:37:52;;;;;;;;;27.00;24.33;;;;;20.16;47.45;100216.78;5060845;28;45715;-72
2023/05/04 01:40:18;;;;;;;;;21.67;21.67;;;;;20.33;47.65;100240.00;5062530;28;45651;-72
2023/05/04 01:42:43;;;;;;;;;30.00;28.33;;;;;20.28;47.92;100234.31;5058680;28;46297;-72
2023/05/04 01:45:09;;;;;;;;;27.00;24.67;;;;;20.37;47.73;100250.59;5055887;28;45430;-72
2023/05/04 01:47:35;;;;;;;;;27.00;25.33;;;;;20.26;47.69;100222.66;5058412;28;45339;-72
2023/05/04 01:50:01;;;;;;;;;26.33;24.67;;;;;20.30;47.51;100239.56;5058891;28;45594;-72
2023/05/04 01:52:26;;;;;;;;;27.33;24.33;;;;;20.24;47.95;100224.78;5060641;28;45713;-72
2023/05/04 01:54:52;;;;;;;;;23.67;23.00;;;;;20.24;47.75;100224.78;5065956;28;45535;-72
2023/05/04 01:57:19;;;;;;;;;27.33;24.33;;;;;20.16;48.02;100205.78;5058265;28;45489;-72
2023/05/04 01:59:45;;;;;;;;;26.67;25.67;;;;;20.17;47.65;100213.81;5059048;28;45391;-72
2023/05/04 02:02:10;;;;;;;;;24.50;21.50;;;;;20.24;47.67;100224.78;5056713;28;47032;-72
2023/05/04 02:04:36;;;;;;;;;21.67;19.33;;;;;20.23;47.54;100225.00;5064895;28;45489;-72
2023/05/04 02:07:01;;;;;;;;;24.67;24.67;;;;;20.26;47.58;100233.66;5057320;28;45450;-72
2023/05/04 02:09:26;;;;;;;;;22.67;22.33;;;;;20.23;47.71;100228.59;5058479;28;45457;-72
2023/05/04 02:11:52;;;;;;;;;24.00;22.67;;;;;20.23;47.58;100234.09;5057036;28;46501;-72
2023/05/04 02:14:17;;;;;;;;;23.25;22.25;;;;;20.26;47.27;100232.81;5057832;28;45475;-72
2023/05/04 02:16:43;;;;;;;;;18.67;18.67;;;;;20.22;47.44;100221.41;5057192;28;45500;-72
2023/05/04 02:19:08;;;;;;;;;21.50;21.25;;;;;20.20;47.62;100218.03;5058885;28;45340;-72
2023/05/04 02:21:35;;;;;;;;;26.50;23.00;;;;;20.19;47.72;100224.56;5057923;28;45719;-72
2023/05/04 02:24:00;;;;;;;;;19.67;19.67;;;;;20.19;47.34;100216.31;5053608;28;45410;-73
2023/05/04 02:26:26;;;;;;;;;20.75;20.75;;;;;20.13;47.64;100208.94;5057958;28;45429;-72
2023/05/04 02:28:51;;;;;;;;;19.50;19.50;;;;;20.16;47.57;100219.50;5058722;28;45417;-72
2023/05/04 02:31:18;;;;;;;;;22.50;19.50;;;;;20.23;47.41;100222.25;5057789;28;45835;-72
2023/05/04 02:33:44;;;;;;;;;23.25;20.50;;;;;20.09;47.36;100194.78;5057867;28;45630;-72
2023/05/04 02:36:09;;;;;;;;;19.00;18.75;;;;;20.14;47.65;100205.13;5057587;28;45479;-72
2023/05/04 02:38:35;;;;;;;;;19.25;19.00;;;;;20.16;47.52;100205.78;5057255;28;45384;-72
2023/05/04 02:41:00;;;;;;;;;20.75;18.50;;;;;20.21;47.37;100211.47;5057742;28;45515;-72
2023/05/04 02:43:27;;;;;;;;;20.50;17.25;;;;;20.18;47.57;100209.13;5054605;28;45471;-72
2023/05/04 02:45:52;;;;;;;;;19.75;18.00;;;;;20.19;47.40;100213.56;5056435;28;45327;-72
2023/05/04 02:48:18;;;;;;;;;18.75;17.75;;;;;20.21;47.67;100214.22;5058042;28;45361;-72
2023/05/04 02:50:45;;;;;;;;;16.00;16.00;;;;;20.18;47.42;100218.25;5057639;28;45584;-72
2023/05/04 02:53:11;;;;;;;;;18.00;16.00;;;;;20.15;47.21;100204.09;5056367;28;45495;-72
2023/05/04 02:55:36;;;;;;;;;19.75;19.50;;;;;20.17;47.27;100201.94;5057362;28;45794;-72
2023/05/04 02:58:03;;;;;;;;;21.25;19.00;;;;;20.17;47.54;100212.94;5058224;28;45520;-72
2023/05/04 03:00:28;;;;;;;;;17.50;15.00;;;;;20.18;47.40;100209.13;5057116;28;45689;-72
2023/05/04 03:02:54;;;;;;;;;16.50;16.50;;;;;20.09;47.40;100188.44;5056727;28;45534;-72
2023/05/04 03:05:20;;;;;;;;;16.00;15.75;;;;;20.18;47.34;100206.38;5066918;28;45597;-72
2023/05/04 03:07:46;;;;;;;;;18.50;17.00;;;;;20.06;47.44;100177.88;5056822;28;45641;-73
2023/05/04 03:10:11;;;;;;;;;16.50;15.50;;;;;20.11;47.44;100191.81;5056936;28;45662;-72
2023/05/04 03:12:37;;;;;;;;;15.25;15.25;;;;;20.16;47.39;100205.78;5057100;28;45424;-72
2023/05/04 03:15:03;;;;;;;;;15.50;15.50;;;;;20.14;47.43;100196.88;5057528;28;45416;-72
2023/05/04 03:17:29;;;;;;;;;16.25;15.50;;;;;20.15;47.42;100193.09;5057697;28;45392;-72
2023/05/04 03:19:56;;;;;;;;;16.50;15.75;;;;;20.00;47.19;100168.56;5057204;28;45520;-72
2023/05/04 03:22:21;;;;;;;;;18.00;16.50;;;;;20.18;47.20;100200.88;5056193;28;45549;-72
2023/05/04 03:24:46;;;;;;;;;13.50;13.50;;;;;20.09;47.34;100189.28;5046807;28;45413;-72
2023/05/04 03:27:12;;;;;;;;;19.75;17.50;;;;;20.15;47.52;100198.59;5057265;28;45377;-72
2023/05/04 03:29:37;;;;;;;;;15.00;15.00;;;;;20.10;47.25;100193.72;5056595;28;45754;-72
2023/05/04 03:32:03;;;;;;;;;17.25;17.00;;;;;20.16;47.02;100200.28;5056881;28;45395;-73
2023/05/04 03:34:28;;;;;;;;;16.50;16.25;;;;;20.04;47.40;100174.47;5056987;28;45429;-72
2023/05/04 03:36:54;;;;;;;;;14.50;14.50;;;;;20.09;47.03;100172.78;5057586;28;45529;-72
2023/05/04 03:39:22;;;;;;;;;15.25;14.75;;;;;20.13;47.08;100184.22;5055137;28;47033;-72
2023/05/04 03:41:48;;;;;;;;;13.50;13.50;;;;;20.12;46.94;100182.50;5057144;28;45380;-72
2023/05/04 03:44:14;;;;;;;;;17.25;16.00;;;;;20.09;47.40;100172.78;5053656;28;45568;-72
2023/05/04 03:46:39;;;;;;;;;16.50;15.00;;;;;20.14;46.94;100185.91;5058922;28;45338;-72
2023/05/04 03:49:06;;;;;;;;;14.50;13.25;;;;;20.06;47.09;100167.72;5053732;28;45465;-72
2023/05/04 03:51:31;;;;;;;;;13.25;13.25;;;;;20.04;46.97;100158.00;5065967;28;45433;-72
2023/05/04 03:53:57;;;;;;;;;17.25;14.25;;;;;20.05;47.06;100165.19;5053568;28;45629;-72
2023/05/04 03:56:22;;;;;;;;;13.00;13.00;;;;;19.96;47.19;100154.41;5049033;28;45422;-72
2023/05/04 03:58:47;;;;;;;;;15.25;13.75;;;;;20.00;47.18;100169.44;5056613;28;45568;-72
2023/05/04 04:01:13;;;;;;;;;14.00;12.50;;;;;20.06;47.25;100172.38;5056205;28;45389;-72
2023/05/04 04:03:39;;;;;;;;;14.50;13.00;;;;;19.99;46.81;100155.88;5054843;28;45512;-72
2023/05/04 04:06:08;;;;;;;;;15.50;13.75;;;;;20.05;46.92;100162.44;5057190;28;45526;-78
2023/05/04 04:08:34;;;;;;;;;12.50;12.25;;;;;20.04;47.22;100149.75;5056945;28;46722;-73
2023/05/04 04:11:01;;;;;;;;;15.00;15.00;;;;;20.05;47.02;100148.69;5066081;28;45383;-74
2023/05/04 04:13:29;;;;;;;;;14.00;14.00;;;;;20.05;47.16;100140.47;5059837;27;45835;-73
2023/05/04 04:15:55;;;;;;;;;15.75;14.25;;;;;20.01;47.10;100143.66;5056551;28;45669;-73
2023/05/04 04:18:22;;;;;;;;;14.50;13.25;;;;;20.09;47.03;100150.81;5056506;28;45636;-73
2023/05/04 04:20:47;;;;;;;;;12.25;11.50;;;;;19.98;47.20;100141.31;5064510;27;45469;-73
2023/05/04 04:23:13;;;;;;;;;12.00;10.75;;;;;20.02;47.54;100139.81;5066446;28;45802;-73
2023/05/04 04:25:39;;;;;;;;;14.00;12.75;;;;;19.97;47.15;100130.56;5061305;28;45304;-70
2023/05/04 04:28:05;;;;;;;;;13.25;11.25;;;;;19.95;43.54;100133.47;5054893;28;46267;-70
2023/05/04 04:30:30;;;;;;;;;12.00;11.50;;;;;19.81;44.76;100126.28;5054930;28;45370;-73
2023/05/04 04:32:57;;;;;;;;;13.25;11.50;;;;;19.78;45.52;100123.97;5061764;28;45470;-76
2023/05/04 04:35:23;;;;;;;;;11.50;11.50;;;;;19.81;45.38;100115.28;5054975;28;45803;-76
2023/05/04 04:37:50;;;;;;;;;10.00;10.00;;;;;19.88;45.40;100120.81;5053072;28;45729;-76
2023/05/04 04:40:15;;;;;;;;;10.80;9.40;;;;;19.81;47.16;100098.81;5051559;28;45720;-75
2023/05/04 04:42:41;;;;;;;;;13.50;11.50;;;;;19.88;46.62;100115.34;5057697;28;45517;-76
2023/05/04 04:45:07;;;;;;;;;11.00;10.25;;;;;19.89;46.48;100111.53;5065490;28;45427;-74
2023/05/04 04:47:32;;;;;;;;;12.75;11.00;;;;;19.84;46.86;100098.44;5062279;28;46307;-76
2023/05/04 04:49:58;;;;;;;;;14.50;11.50;;;;;19.95;46.38;100106.03;5060660;27;45889;-72
2023/05/04 04:52:24;;;;;;;;;10.25;10.25;;;;;19.88;46.89;100091.44;5057834;28;45404;-72
2023/05/04 04:54:50;;;;;;;;;14.50;10.25;;;;;19.99;46.60;100118.28;5061831;28;45548;-72
2023/05/04 04:57:17;;;;;;;;;11.75;10.00;;;;;19.89;47.10;100101.38;5059356;28;46082;-73
2023/05/04 04:59:42;;;;;;;;;14.80;10.20;;;;;19.87;46.82;100103.50;5047979;28;45720;-74
2023/05/04 05:02:08;;;;;;;;;10.50;10.50;;;;;19.89;46.89;100106.88;5057722;28;45445;-75
2023/05/04 05:04:36;;;;;;;;;11.00;11.00;;;;;19.92;46.88;100109.22;5052196;28;45639;-73
2023/05/04 05:07:02;;;;;;;;;12.00;12.00;;;;;19.91;47.01;100121.25;5058486;28;45661;-74
2023/05/04 05:09:27;;;;;;;;;12.25;11.50;;;;;19.90;46.90;100110.47;5058875;28;45393;-77
2023/05/04 05:11:53;;;;;;;;;12.50;10.75;;;;;19.99;47.41;100131.16;5045751;28;45478;-72
2023/05/04 05:14:18;;;;;;;;;9.25;9.25;;;;;19.98;47.35;100122.09;5059238;28;45388;-72
2023/05/04 05:16:44;;;;;;;;;12.50;11.50;;;;;19.95;47.45;100125.25;5057275;28;45463;-72
2023/05/04 05:19:09;;;;;;;;;12.00;10.50;;;;;19.98;47.63;100141.31;5060432;28;45962;-78
2023/05/04 05:21:34;;;;;;;;;11.00;10.75;;;;;19.99;47.20;100151.25;5059989;28;45446;-77
2023/05/04 05:24:00;;;;;;;;;13.25;11.75;;;;;19.81;47.77;100120.78;5058693;28;45451;-77
2023/05/04 05:26:26;;;;;;;;;13.00;10.50;;;;;19.94;47.27;100137.31;5058547;28;46390;-77
2023/05/04 05:28:51;;;;;;;;;12.50;10.50;;;;;19.99;47.69;100148.50;5058627;28;45673;-80
2023/05/04 05:31:16;;;;;;;;;10.00;10.00;;;;;19.97;47.66;100136.88;5055003;28;45450;-80
2023/05/04 05:33:42;;;;;;;;;14.75;11.25;;;;;19.93;47.57;100141.13;5063111;28;46002;-80
2023/05/04 05:36:07;;;;;;;;;9.25;9.25;;;;;20.01;47.94;100154.63;5058419;28;45447;-80
2023/05/04 05:38:33;;;;;;;;;13.25;9.50;;;;;19.97;47.40;100147.03;5057269;28;45550;-80
2023/05/04 05:40:58;;;;;;;;;11.75;9.75;;;;;19.93;47.69;100149.34;5058212;28;45477;-80
2023/05/04 05:43:24;;;;;;;;;13.75;10.75;;;;;19.96;47.54;100146.16;5058948;28;45858;-80
2023/05/04 05:45:50;;;;;;;;;12.25;9.25;;;;;19.90;47.54;100136.03;5052381;28;46087;-75
2023/05/04 05:48:15;;;;;;;;;11.00;10.50;;;;;19.95;47.64;100141.72;5057846;28;45490;-75
2023/05/04 05:50:40;;;;;;;;;10.75;10.75;;;;;19.89;47.48;100120.59;5057957;28;45405;-76
2023/05/04 05:53:10;;;;;;;;;10.50;10.50;;;;;19.94;47.45;100123.59;5070658;28;45516;-78
2023/05/04 05:55:35;;;;;;;;;10.50;9.75;;;;;19.90;47.64;100114.06;5057872;28;45521;-79
2023/05/04 05:58:04;;;;;;;;;10.25;9.00;;;;;19.96;47.10;100123.34;5057042;28;46156;-78
2023/05/04 06:00:30;;;;;;;;;9.60;9.20;;;;;19.94;47.80;100109.84;5055908;28;45733;-79
2023/05/04 06:02:59;;;;;;;;;9.75;9.75;;;;;19.90;47.55;100103.06;5056499;28;45459;-79
2023/05/04 06:05:25;;;;;;;;;10.00;8.25;;;;;19.89;47.60;100108.78;5056709;28;45613;-79
2023/05/04 06:07:51;;;;;;;;;12.75;8.00;;;;;19.85;47.54;100105.63;5057049;28;45648;-79
2023/05/04 06:10:18;;;;;;;;;9.75;9.75;;;;;19.86;47.64;100104.56;5056987;28;45798;-79
2023/05/04 06:12:44;;;;;;;;;11.75;9.50;;;;;19.98;47.84;100122.09;5056905;28;45411;-79
2023/05/04 06:15:13;;;;;;;;;13.25;10.50;;;;;19.90;47.50;100114.06;5057728;28;45442;-79
2023/05/04 06:17:39;;;;;;;;;11.20;9.20;;;;;19.89;47.64;100104.13;5057342;28;45426;-79
2023/05/04 06:20:07;;;;;;;;;10.75;9.00;;;;;19.98;47.79;100124.84;5057535;28;45652;-79
2023/05/04 06:22:33;;;;;;;;;11.00;11.00;;;;;20.01;47.91;100132.66;5058368;28;45398;-80
2023/05/04 06:24:58;;;;;;;;;11.50;10.25;;;;;19.97;47.86;100131.38;5058072;28;46091;-80
2023/05/04 06:27:24;;;;;;;;;16.25;11.00;;;;;19.90;47.97;100125.03;5057454;28;45470;-80
2023/05/04 06:29:50;;;;;;;;;10.00;9.00;;;;;19.94;47.69;100114.47;5057511;28;45335;-79
2023/05/04 06:32:16;;;;;;;;;14.00;11.25;;;;;19.95;47.89;100111.50;5056570;28;45414;-79
2023/05/04 06:34:42;;;;;;;;;12.00;11.00;;;;;19.92;47.83;100100.09;5057845;28;46339;-79
2023/05/04 06:37:08;;;;;;;;;9.25;9.25;;;;;19.97;47.86;100108.56;5067169;28;45446;-79
2023/05/04 06:39:35;;;;;;;;;11.00;11.00;;;;;19.89;48.09;100090.41;5063163;27;45394;-79
2023/05/04 06:42:02;;;;;;;;;9.25;9.25;;;;;19.99;48.41;100118.28;5074006;28;45446;-78
2023/05/04 06:44:27;;;;;;;;;9.75;8.25;;;;;19.95;48.54;100100.53;5066757;27;46606;-58
2023/05/04 06:46:57;;;;;;;;;11.25;8.50;;;;;20.00;48.42;100103.50;5076332;27;45502;-59
2023/05/04 06:49:23;;;;;;;;;11.40;9.60;;;;;19.99;48.63;100104.56;5065908;27;45451;-58
2023/05/04 06:51:48;;;;;;;;;11.75;11.75;;;;;19.98;48.42;100116.59;5057062;28;45336;-58
2023/05/04 06:54:14;;;;;;;;;11.00;9.25;;;;;19.98;48.65;100135.81;5056081;28;46735;-58
2023/05/04 06:56:41;;;;;;;;;8.50;8.50;;;;;19.96;48.78;100126.94;5057743;28;45430;-58
2023/05/04 06:59:08;;;;;;;;;10.80;8.40;;;;;19.95;48.70;100117.00;5069555;27;45505;-58
2023/05/04 07:01:34;;;;;;;;;12.25;11.00;;;;;19.93;48.73;100124.63;5061410;28;45407;-58
2023/05/04 07:04:00;;;;;;;;;14.50;10.75;;;;;19.95;49.01;100132.66;5061430;27;47065;-58
2023/05/04 07:06:26;;;;;;;;;10.75;10.00;;;;;19.88;48.86;100121.66;5073971;28;45513;-59
2023/05/04 07:08:51;;;;;;;;;8.00;8.00;;;;;19.94;48.68;100131.81;5064101;28;45677;-59
2023/05/04 07:11:17;;;;;;;;;12.00;10.25;;;;;19.88;48.80;100124.41;5072066;27;45466;-58
2023/05/04 07:13:42;;;;;;;;;12.25;11.00;;;;;19.98;48.79;100146.81;5067225;27;47233;-58
2023/05/04 07:16:08;;;;;;;;;11.00;11.00;;;;;19.98;48.80;100143.22;5067894;28;45364;-58
2023/05/04 07:18:34;;;;;;;;;14.25;9.00;;;;;19.94;48.97;100133.72;5074524;28;46284;-60
2023/05/04 07:21:00;;;;;;;;;12.00;7.25;;;;;19.98;48.56;100138.56;5078094;27;45352;-59
2023/05/04 07:23:26;;;;;;;;;12.75;10.00;;;;;19.94;48.59;100142.81;5069715;27;46441;-59
2023/05/04 07:25:52;;;;;;;;;9.80;9.80;;;;;19.97;48.76;100141.53;5058533;28;45355;-59
2023/05/04 07:28:18;;;;;;;;;8.25;8.25;;;;;19.97;48.72;100142.38;5062905;28;45887;-59
2023/05/04 07:30:44;;;;;;;;;10.25;8.50;;;;;19.94;48.48;100131.81;5072371;28;45473;-59
2023/05/04 07:33:10;;;;;;;;;10.25;7.50;;;;;19.94;48.73;100134.56;5066158;28;46356;-60
2023/05/04 07:35:35;;;;;;;;;11.00;9.25;;;;;19.84;48.15;100109.41;5071234;27;45808;-60
2023/05/04 07:38:01;;;;;;;;;12.75;9.50;;;;;19.85;48.32;100117.44;5077525;27;45423;-59
2023/05/04 07:40:27;;;;;;;;;14.50;12.50;;;;;19.83;48.41;100126.91;5060748;27;45555;-59
2023/05/04 07:42:55;;;;;;;;;10.25;10.25;;;;;19.84;48.93;100126.72;5067467;27;47291;-59
2023/05/04 07:45:20;;;;;;;;;10.00;9.80;;;;;19.75;48.67;100094.16;5053425;28;45409;-59
2023/05/04 07:47:46;;;;;;;;;11.75;10.25;;;;;19.88;48.52;100129.06;5057249;28;45423;-59
2023/05/04 07:50:12;;;;;;;;;11.00;10.00;;;;;19.96;48.72;100128.84;5069178;28;45473;-59
2023/05/04 07:52:38;;;;;;;;;8.25;8.25;;;;;19.90;48.82;100130.53;5061538;28;46842;-58
2023/05/04 07:55:04;;;;;;;;;11.25;8.25;;;;;19.92;48.85;100125.69;5071080;27;45487;-58
2023/05/04 07:57:31;;;;;;;;;11.50;8.00;;;;;19.96;48.85;100134.34;5058353;27;45334;-58
2023/05/04 07:59:56;;;;;;;;;9.75;8.50;;;;;19.99;48.95;100128.41;5057623;28;45484;-58
2023/05/04 08:02:22;;;;;;;;;10.25;10.25;;;;;19.85;48.65;100102.88;5056367;28;47827;-59
2023/05/04 08:04:48;;;;;;;;;12.50;10.00;;;;;20.04;48.91;100127.78;5064248;28;45575;-59
2023/05/04 08:07:15;;;;;;;;;10.50;9.50;;;;;19.99;48.74;100118.28;5060930;28;45386;-58
2023/05/04 08:09:41;;;;;;;;;11.00;8.25;;;;;20.05;48.74;100122.09;5073597;28;45665;-59
2023/05/04 08:12:07;;;;;;;;;11.25;8.00;;;;;19.92;49.03;100106.47;5061731;28;46734;-58
2023/05/04 08:14:33;;;;;;;;;12.20;10.00;;;;;20.01;48.68;100113.44;5078113;27;45497;-58
2023/05/04 08:16:59;;;;;;;;;9.00;9.00;;;;;20.00;48.75;100109.00;5066503;28;45444;-59
2023/05/04 08:19:25;;;;;;;;;11.00;9.50;;;;;19.95;48.88;100103.28;5076546;28;45411;-59
2023/05/04 08:21:50;;;;;;;;;9.25;7.75;;;;;20.11;48.86;100125.88;5063403;27;46025;-59
2023/05/04 08:24:17;;;;;;;;;8.50;8.25;;;;;20.10;48.81;100121.44;5063600;27;45488;-59
2023/05/04 08:26:42;;;;;;;;;9.20;8.40;;;;;20.05;48.84;100121.22;5062814;27;45536;-59
2023/05/04 08:29:09;;;;;;;;;12.75;9.75;;;;;20.08;49.04;100132.63;5076544;27;45560;-59
2023/05/04 08:31:35;;;;;;;;;9.20;8.80;;;;;20.10;48.71;100130.53;5067059;28;45441;-59
2023/05/04 08:34:02;;;;;;;;;12.00;9.80;;;;;20.12;48.63;100128.44;5068403;27;45445;-59
2023/05/04 08:36:28;;;;;;;;;9.20;8.40;;;;;20.12;48.76;100127.56;5074226;28;45648;-59
2023/05/04 08:38:53;;;;;;;;;7.00;7.00;;;;;20.10;48.84;100118.69;5061823;28;45569;-59
2023/05/04 08:41:19;;;;;;;;;9.75;9.75;;;;;20.14;48.83;100125.47;5059164;28;45452;-59
2023/05/04 08:43:45;;;;;;;;;7.50;7.25;;;;;20.14;49.33;100119.97;5055640;28;45684;-59
2023/05/04 08:46:12;;;;;;;;;9.20;6.60;;;;;20.13;48.87;100121.03;5070526;28;45522;-59
2023/05/04 08:48:37;;;;;;;;;8.25;7.50;;;;;20.13;48.71;100107.28;5065848;27;45680;-59
2023/05/04 08:51:05;;;;;;;;;8.00;8.00;;;;;20.09;49.04;100097.78;5075690;28;45606;-59
2023/05/04 08:53:34;;;;;;;;;9.00;8.80;;;;;20.12;48.89;100102.84;5063743;28;45374;-59
2023/05/04 08:56:02;;;;;;;;;8.80;8.80;;;;;20.15;49.06;100100.50;5060031;28;45371;-59
2023/05/04 08:58:30;;;;;;;;;11.25;9.75;;;;;20.10;49.22;100080.22;5039542;28;45482;-58
2023/05/04 09:01:00;;;;;;;;;9.50;8.25;;;;;20.16;49.50;100095.88;5039379;28;47352;-59
2023/05/04 09:03:27;;;;;;;;;9.20;7.20;;;;;20.16;49.51;100098.63;5039165;28;45387;-59
2023/05/04 09:05:53;;;;;;;;;10.40;9.00;;;;;20.20;49.17;100099.03;5039552;28;45720;-59
2023/05/04 09:08:19;;;;;;;;;10.75;8.00;;;;;20.16;48.88;100085.72;5054222;28;45459;-59
2023/05/04 09:10:45;;;;;;;;;10.60;9.00;;;;;20.16;49.03;100080.22;5068716;28;45817;-59
2023/05/04 09:13:11;;;;;;;;;12.00;9.50;;;;;20.18;49.18;100086.34;5068399;27;45573;-59
2023/05/04 09:15:37;;;;;;;;;8.25;7.75;;;;;20.18;49.17;100088.25;5075647;28;45398;-59
2023/05/04 09:18:05;;;;;;;;;9.00;8.50;;;;;20.24;49.29;100087.38;5059570;27;45514;-59
2023/05/04 09:20:48;;;;;;;;;12.00;7.25;;;;;20.26;49.16;100087.19;5066331;28;46314;-59
2023/05/04 09:23:16;;;;;;;;;10.00;7.20;;;;;20.26;48.91;100090.78;5061329;27;45528;-59
2023/05/04 09:26:00;;;;;;;;;8.80;8.40;;;;;20.23;49.12;100085.72;5073240;28;45410;-59
2023/05/04 09:28:37;;;;;;;;;8.25;8.25;;;;;20.26;48.97;100090.78;5039287;28;45824;-60
2023/05/04 09:31:05;;;;;;;;;9.50;7.75;;;;;20.26;49.25;100090.78;5056907;28;46404;-59
2023/05/04 09:33:30;;;;;;;;;10.60;9.60;;;;;20.21;49.23;100076.84;5065465;28;45367;-59
2023/05/04 09:35:59;;;;;;;;;11.00;9.00;;;;;20.23;49.34;100082.13;5062770;28;45471;-59
2023/05/04 09:38:28;;;;;;;;;9.50;8.00;;;;;20.28;49.06;100088.66;5069873;28;45522;-59
2023/05/04 09:40:55;;;;;;;;;9.00;9.00;;;;;20.29;49.04;100098.59;5068836;28;47166;-59
2023/05/04 09:43:21;;;;;;;;;9.60;8.00;;;;;20.28;49.32;100098.78;5060089;27;45494;-59
2023/05/04 09:45:47;;;;;;;;;7.00;7.00;;;;;20.31;49.54;100106.63;5061325;28;45596;-59
2023/05/04 09:48:19;;;;;;;;;7.50;7.50;;;;;20.32;49.13;100095.41;5075209;27;45453;-59
2023/05/04 09:50:56;;;;;;;;;9.25;9.25;;;;;20.31;49.23;100088.22;5076012;27;45382;-59
2023/05/04 09:53:28;;;;;;;;;7.80;7.80;;;;;20.24;49.37;100076.41;5062204;27;45461;-59
2023/05/04 09:56:07;;;;;;;;;7.80;7.80;;;;;20.32;49.52;100092.66;5061499;28;45500;-59
2023/05/04 09:58:33;;;;;;;;;7.25;7.25;;;;;20.27;49.84;100069.66;5070138;27;45406;-59
2023/05/04 10:01:02;;;;;;;;;7.75;7.75;;;;;20.33;49.71;100091.59;5063472;28;47077;-59
2023/05/04 10:03:28;;;;;;;;;8.80;8.80;;;;;20.34;50.29;100089.72;5047517;28;45481;-59
2023/05/04 10:05:57;;;;;;;;;10.40;8.00;;;;;20.27;49.90;100075.97;5057863;28;45640;-59
2023/05/04 10:08:23;;;;;;;;;7.50;7.00;;;;;20.30;50.25;100082.94;5057792;28;45842;-58
2023/05/04 10:10:51;;;;;;;;;8.00;7.00;;;;;20.33;50.08;100080.59;5038251;28;45434;-59
2023/05/04 10:13:17;;;;;;;;;7.40;7.40;;;;;20.31;50.38;100071.72;5038249;28;45523;-59
2023/05/04 10:16:11;;;;;;;;;9.00;6.80;;;;;20.36;50.34;100089.50;5040028;28;45395;-59
2023/05/04 10:18:52;;;;;;;;;8.75;7.50;;;;;20.34;50.68;100093.28;5059888;28;45431;-59
2023/05/04 10:21:43;;;;;;;;;8.25;7.00;;;;;20.31;49.70;100090.13;5059108;27;47041;-59
2023/05/04 10:24:40;;;;;;;;;9.40;7.40;;;;;20.40;50.16;100096.22;5054941;28;47046;-59
2023/05/04 10:27:32;;;;;;;;;9.00;7.60;;;;;20.39;50.35;100094.53;5073354;28;45677;-59
2023/05/04 10:30:00;;;;;;;;;10.00;8.25;;;;;20.38;50.78;100085.47;5069749;28;45799;-59
2023/05/04 10:32:26;;;;;;;;;10.20;7.00;;;;;20.38;50.41;100092.88;5074474;28;46482;-59
2023/05/04 10:35:03;;;;;;;;;11.60;7.00;;;;;20.45;50.74;100093.69;5066065;28;45534;-59
2023/05/04 10:37:30;;;;;;;;;10.00;7.80;;;;;20.43;51.05;100104.06;5056777;28;45385;-59
2023/05/04 10:39:57;;;;;;;;;8.00;6.50;;;;;20.48;51.15;100096.00;5067309;28;45517;-59
2023/05/04 10:42:23;;;;;;;;;8.40;6.60;;;;;20.45;51.01;100082.72;5066495;27;45601;-60
2023/05/04 10:44:56;;;;;;;;;7.75;6.25;;;;;20.55;51.05;100109.75;5059538;27;45323;-61
2023/05/04 10:47:31;;;;;;;;;6.80;6.40;;;;;20.55;50.93;100113.31;5068321;28;45702;-60
2023/05/04 10:50:04;;;;;;;;;8.25;6.25;;;;;20.59;51.22;100121.97;5072684;28;45555;-59
2023/05/04 10:52:52;;;;;;;;;10.00;7.40;;;;;20.58;50.81;100120.28;5060241;27;46973;-59
2023/05/04 10:55:20;;;;;;;;;8.40;7.60;;;;;20.61;51.67;100128.94;5064151;27;45564;-59
2023/05/04 10:57:48;;;;;;;;;8.00;7.60;;;;;20.60;51.73;100119.00;5066159;28;45442;-59
2023/05/04 11:00:15;;;;;;;;;9.50;8.50;;;;;20.67;51.66;100134.66;5060292;28;45486;-60
2023/05/04 11:02:41;;;;;;;;;9.60;8.80;;;;;20.65;52.17;100143.97;5069300;27;46459;-59
2023/05/04 11:05:07;;;;;;;;;8.00;8.00;;;;;20.62;52.35;100138.88;5060673;28;45427;-59
2023/05/04 11:07:37;;;;;;;;;8.60;6.00;;;;;20.67;51.97;100151.16;5077195;27;45386;-60
2023/05/04 11:10:07;;;;;;;;;8.25;8.00;;;;;20.65;51.39;100146.72;5073264;27;45514;-60
2023/05/04 11:12:33;;;;;;;;;7.40;7.40;;;;;20.68;51.47;100141.81;5071266;28;46120;-59
2023/05/04 11:15:09;;;;;;;;;8.40;8.40;;;;;20.69;51.50;100143.50;5063295;27;45605;-59